Time;durP1;ratioP1;P1;durP2;ratioP2;P2;SDS_P1;SDS_P2;PMS_P1;PMS_P2;Temp;Humidity;BMP_temperature;BMP_pressure;BME280_temperature;BME280_humidity;BME280_pressure;Samples;Min_cycle;Max_cycle;Signal;HPM_P1;HPM_P2
2023/05/14 00:02:10;;;;;;;8.80;6.90;;;11.60;99.90;;;;;;5031018;28;20059;-70
2023/05/14 00:04:35;;;;;;;10.77;8.10;;;11.70;99.90;;;;;;5030136;28;20497;-69
2023/05/14 00:07:01;;;;;;;10.80;7.63;;;11.80;99.90;;;;;;5030087;28;20109;-69
2023/05/14 00:09:26;;;;;;;11.27;8.40;;;11.90;99.90;;;;;;5030056;28;20022;-69
2023/05/14 00:11:52;;;;;;;9.60;7.47;;;11.90;99.90;;;;;;5030188;28;20061;-69
2023/05/14 00:14:17;;;;;;;10.17;7.93;;;11.80;99.90;;;;;;5030055;28;20044;-70
2023/05/14 00:16:43;;;;;;;11.17;7.50;;;11.90;99.90;;;;;;5030187;28;20505;-70
2023/05/14 00:19:08;;;;;;;11.30;6.73;;;11.90;99.90;;;;;;5029991;28;20040;-69
2023/05/14 00:21:34;;;;;;;9.13;6.37;;;11.90;99.90;;;;;;5024277;28;20030;-68
2023/05/14 00:24:00;;;;;;;10.00;7.50;;;11.90;99.90;;;;;;5028588;28;20044;-70
2023/05/14 00:26:25;;;;;;;9.50;6.47;;;11.90;99.90;;;;;;5029641;28;20029;-70
2023/05/14 00:28:51;;;;;;;10.57;7.30;;;12.00;99.90;;;;;;5045955;28;20474;-68
2023/05/14 00:31:16;;;;;;;13.30;8.40;;;12.00;99.90;;;;;;5030245;28;20160;-68
2023/05/14 00:33:42;;;;;;;11.60;8.50;;;11.90;99.90;;;;;;5030071;28;20026;-68
2023/05/14 00:36:07;;;;;;;10.43;7.63;;;11.80;99.90;;;;;;5032724;28;20039;-70
2023/05/14 00:38:33;;;;;;;14.97;8.40;;;11.80;99.90;;;;;;5032017;28;20018;-70
2023/05/14 00:40:59;;;;;;;19.50;7.60;;;11.60;99.90;;;;;;5029741;28;20029;-69
2023/05/14 00:43:24;;;;;;;9.03;7.30;;;11.60;99.90;;;;;;5029024;28;20600;-69
2023/05/14 00:45:52;;;;;;;13.20;8.10;;;11.60;99.90;;;;;;5029392;28;20037;-69
2023/05/14 00:48:19;;;;;;;16.60;8.27;;;11.60;99.90;;;;;;5027859;28;20782;-69
2023/05/14 00:50:45;;;;;;;14.05;8.20;;;11.60;99.90;;;;;;5030969;28;20175;-69
2023/05/14 00:53:11;;;;;;;10.75;7.68;;;11.60;99.90;;;;;;5043920;28;20116;-69
2023/05/14 00:55:41;;;;;;;18.33;8.00;;;11.60;99.90;;;;;;5029033;28;20038;-69
2023/05/14 00:58:09;;;;;;;13.60;8.27;;;11.80;99.90;;;;;;5029626;28;20029;-69
2023/05/14 01:00:36;;;;;;;10.25;7.38;;;11.80;99.90;;;;;;5029060;28;20108;-69
2023/05/14 01:03:06;;;;;;;9.93;7.60;;;11.80;99.90;;;;;;5028679;28;20036;-69
2023/05/14 01:06:02;;;;;;;13.25;7.53;;;11.90;99.90;;;;;;5028928;28;20017;-70
2023/05/14 01:09:01;;;;;;;13.85;6.82;;;11.90;99.90;;;;;;5028061;28;20079;-69
2023/05/14 01:12:00;;;;;;;14.10;8.23;;;11.90;99.90;;;;;;5025449;28;20071;-70
2023/05/14 01:14:36;;;;;;;14.23;7.45;;;11.80;99.90;;;;;;5027859;28;20030;-69
2023/05/14 01:17:03;;;;;;;11.23;7.07;;;11.70;99.90;;;;;;5029056;28;20037;-70
2023/05/14 01:19:39;;;;;;;9.30;7.18;;;11.70;99.90;;;;;;5028207;28;20021;-69
2023/05/14 01:22:05;;;;;;;19.30;8.48;;;11.60;99.90;;;;;;5029047;28;20488;-71
2023/05/14 01:24:31;;;;;;;15.80;7.28;;;11.50;99.90;;;;;;5028961;28;20047;-69
2023/05/14 01:27:13;;;;;;;13.73;7.95;;;11.50;99.90;;;;;;5028377;28;20084;-70
2023/05/14 01:29:46;;;;;;;10.70;7.55;;;11.60;99.90;;;;;;5028560;28;20027;-68
2023/05/14 01:32:14;;;;;;;12.73;7.05;;;11.60;99.90;;;;;;5038823;28;20056;-69
2023/05/14 01:34:40;;;;;;;10.23;7.35;;;11.40;99.90;;;;;;5028567;28;20033;-69
2023/05/14 01:37:08;;;;;;;34.53;8.20;;;11.50;99.90;;;;;;5029467;28;20045;-69
2023/05/14 01:39:36;;;;;;;12.60;7.50;;;11.50;99.90;;;;;;5028823;28;20531;-70
2023/05/14 01:42:03;;;;;;;14.63;7.75;;;11.50;99.90;;;;;;5030592;28;20090;-68
2023/05/14 01:44:29;;;;;;;11.85;7.70;;;11.50;99.90;;;;;;5044707;28;20033;-70
2023/05/14 01:46:55;;;;;;;13.95;8.35;;;11.40;99.90;;;;;;5028923;28;20017;-71
2023/05/14 01:49:21;;;;;;;13.85;7.97;;;11.50;99.90;;;;;;5023370;28;20037;-70
2023/05/14 01:51:48;;;;;;;16.00;8.18;;;11.50;99.90;;;;;;5029054;28;20037;-69
2023/05/14 01:54:13;;;;;;;16.83;7.90;;;11.60;99.90;;;;;;5027968;28;20112;-69
2023/05/14 01:56:39;;;;;;;14.43;7.73;;;11.60;99.90;;;;;;5043111;28;20163;-69
2023/05/14 01:59:05;;;;;;;16.23;8.60;;;11.60;99.90;;;;;;5027648;28;20405;-70
2023/05/14 02:01:30;;;;;;;16.87;7.53;;;11.60;99.90;;;;;;5027239;28;20132;-69
2023/05/14 02:03:56;;;;;;;14.10;8.13;;;11.60;99.90;;;;;;5027561;28;20127;-69
2023/05/14 02:06:21;;;;;;;12.73;8.30;;;11.60;99.90;;;;;;5026747;28;20114;-70
2023/05/14 02:09:07;;;;;;;10.43;7.53;;;11.60;99.90;;;;;;5028595;28;20509;-69
2023/05/14 02:11:33;;;;;;;17.38;7.03;;;11.50;99.90;;;;;;5045036;28;20045;-71
2023/05/14 02:13:58;;;;;;;14.00;7.00;;;11.40;99.90;;;;;;5046149;28;20532;-69
2023/05/14 02:16:24;;;;;;;16.17;8.77;;;11.50;99.90;;;;;;5045108;28;20048;-69
2023/05/14 02:18:49;;;;;;;17.33;8.60;;;11.50;99.90;;;;;;5045851;28;20040;-71
2023/05/14 02:21:15;;;;;;;10.67;7.00;;;11.40;99.90;;;;;;5044503;28;20082;-68
2023/05/14 02:23:41;;;;;;;19.37;8.70;;;11.40;99.90;;;;;;5045422;28;20492;-69
2023/05/14 02:26:08;;;;;;;11.45;7.10;;;11.40;99.90;;;;;;5044670;28;20029;-68
2023/05/14 02:28:34;;;;;;;12.00;7.55;;;11.50;99.90;;;;;;5045321;28;20055;-68
2023/05/14 02:31:00;;;;;;;10.67;7.27;;;11.50;99.90;;;;;;5045511;28;20601;-69
2023/05/14 02:33:26;;;;;;;9.00;6.90;;;11.40;99.90;;;;;;5044925;28;20532;-68
2023/05/14 02:35:51;;;;;;;8.32;6.32;;;11.60;99.90;;;;;;5045128;28;20053;-69
2023/05/14 02:38:17;;;;;;;8.97;6.63;;;11.60;99.90;;;;;;5045510;28;20179;-70
2023/05/14 02:40:43;;;;;;;12.20;7.78;;;11.70;99.90;;;;;;5044217;28;20033;-69
2023/05/14 02:43:08;;;;;;;9.10;7.30;;;11.80;99.90;;;;;;5031796;28;20042;-68
2023/05/14 02:45:34;;;;;;;10.60;7.47;;;11.70;99.90;;;;;;5027427;28;20033;-69
2023/05/14 02:48:00;;;;;;;12.25;8.32;;;11.70;99.90;;;;;;5028012;28;20037;-68
2023/05/14 02:50:26;;;;;;;12.33;6.07;;;11.80;99.90;;;;;;5027478;28;20497;-68
2023/05/14 02:52:51;;;;;;;15.27;8.68;;;11.70;99.90;;;;;;5027182;28;20516;-69
2023/05/14 02:55:17;;;;;;;9.77;7.43;;;11.80;99.90;;;;;;5027641;28;20038;-70
2023/05/14 02:57:43;;;;;;;10.07;7.93;;;11.80;99.90;;;;;;5027250;28;20072;-69
2023/05/14 03:00:09;;;;;;;9.47;7.33;;;11.90;99.90;;;;;;5027035;28;20036;-69
2023/05/14 03:02:35;;;;;;;24.33;6.93;;;11.90;99.90;;;;;;5027180;28;20030;-69
2023/05/14 03:05:01;;;;;;;11.17;6.70;;;12.00;99.90;;;;;;5042931;28;20052;-69
2023/05/14 03:07:26;;;;;;;10.43;6.28;;;12.00;99.90;;;;;;5022981;28;20029;-69
2023/05/14 03:09:52;;;;;;;11.87;6.33;;;12.00;99.90;;;;;;5026546;28;20041;-69
2023/05/14 03:12:18;;;;;;;8.00;6.40;;;12.00;99.90;;;;;;5030359;28;20034;-69
2023/05/14 03:14:43;;;;;;;8.95;6.38;;;12.00;99.90;;;;;;5030656;28;20033;-69
2023/05/14 03:17:09;;;;;;;9.87;6.80;;;12.00;99.90;;;;;;5031416;28;20036;-69
2023/05/14 03:19:34;;;;;;;14.93;7.13;;;12.00;99.90;;;;;;5045116;28;20079;-70
2023/05/14 03:22:00;;;;;;;11.67;7.00;;;12.00;99.90;;;;;;5030859;28;20441;-70
2023/05/14 03:24:26;;;;;;;11.30;7.50;;;12.10;99.90;;;;;;5031309;28;20022;-70
2023/05/14 03:26:52;;;;;;;9.30;7.27;;;12.00;99.90;;;;;;5031963;28;21143;-71
2023/05/14 03:29:17;;;;;;;13.25;7.25;;;12.10;99.90;;;;;;5032737;28;20086;-70
2023/05/14 03:31:43;;;;;;;9.03;7.67;;;12.10;99.90;;;;;;5031497;28;20113;-69
2023/05/14 03:34:09;;;;;;;14.32;8.32;;;12.10;99.90;;;;;;5030844;28;20100;-69
2023/05/14 03:36:36;;;;;;;18.20;8.45;;;12.10;99.90;;;;;;5031545;28;20413;-69
2023/05/14 03:39:02;;;;;;;14.90;7.45;;;12.10;99.90;;;;;;5030514;28;20016;-71
2023/05/14 03:41:28;;;;;;;10.90;8.07;;;12.20;99.90;;;;;;5030085;28;20112;-70
2023/05/14 03:43:53;;;;;;;9.87;7.87;;;12.10;99.90;;;;;;5031468;28;20029;-69
2023/05/14 03:46:19;;;;;;;13.60;8.00;;;12.10;99.90;;;;;;5031237;28;20029;-69
2023/05/14 03:48:44;;;;;;;13.17;8.43;;;12.00;99.90;;;;;;5030753;28;20040;-69
2023/05/14 03:51:10;;;;;;;11.00;8.13;;;12.00;99.90;;;;;;5031356;28;20856;-68
2023/05/14 03:53:35;;;;;;;13.73;9.60;;;11.90;99.90;;;;;;5030077;28;20033;-69
2023/05/14 03:56:01;;;;;;;16.43;8.27;;;12.00;99.90;;;;;;5024070;28;20038;-69
2023/05/14 03:58:27;;;;;;;16.43;8.53;;;12.00;99.90;;;;;;5030091;28;20026;-69
2023/05/14 04:00:52;;;;;;;16.10;9.63;;;12.00;99.90;;;;;;5030252;28;20537;-69
2023/05/14 04:03:18;;;;;;;19.17;8.75;;;12.10;99.90;;;;;;5045479;28;20032;-70
2023/05/14 04:05:43;;;;;;;13.60;8.47;;;12.00;99.90;;;;;;5030015;28;20489;-69
2023/05/14 04:08:09;;;;;;;11.30;8.30;;;11.90;99.90;;;;;;5029999;28;20056;-68
2023/05/14 04:10:35;;;;;;;10.87;7.83;;;12.00;99.90;;;;;;5029032;28;20032;-69
2023/05/14 04:13:01;;;;;;;16.27;8.60;;;12.00;99.90;;;;;;5030463;28;20025;-69
2023/05/14 04:15:26;;;;;;;13.32;9.23;;;12.10;99.90;;;;;;5030261;28;20827;-69
2023/05/14 04:17:52;;;;;;;11.60;8.17;;;12.00;99.90;;;;;;5025825;28;20488;-72
2023/05/14 04:20:17;;;;;;;12.83;8.67;;;12.00;99.90;;;;;;5038262;28;20526;-68
2023/05/14 04:22:43;;;;;;;11.20;8.73;;;12.00;99.90;;;;;;5031356;28;20037;-70
2023/05/14 04:25:09;;;;;;;12.37;8.50;;;12.00;99.90;;;;;;5034776;28;20468;-69
2023/05/14 04:27:34;;;;;;;16.00;8.50;;;12.00;99.90;;;;;;5029006;28;20029;-71
2023/05/14 04:30:00;;;;;;;16.97;8.13;;;12.00;99.90;;;;;;5019629;28;20037;-69
2023/05/14 04:32:26;;;;;;;11.13;8.13;;;12.00;99.90;;;;;;5031485;28;20033;-69
2023/05/14 04:34:52;;;;;;;12.73;8.97;;;12.00;99.90;;;;;;5035757;28;20125;-69
2023/05/14 04:37:18;;;;;;;15.60;9.80;;;12.10;99.90;;;;;;5032086;28;20049;-70
2023/05/14 04:39:44;;;;;;;12.50;9.23;;;12.20;99.90;;;;;;5031428;28;20096;-70
2023/05/14 04:42:09;;;;;;;14.63;8.73;;;12.20;99.90;;;;;;5043067;28;20235;-69
2023/05/14 04:44:36;;;;;;;15.53;9.90;;;12.20;99.90;;;;;;5028960;28;20052;-69
2023/05/14 04:47:02;;;;;;;16.48;9.52;;;12.30;99.90;;;;;;5029452;28;20370;-71
2023/05/14 04:49:28;;;;;;;12.35;9.00;;;12.30;99.90;;;;;;5030268;28;20481;-70
2023/05/14 04:51:53;;;;;;;12.88;9.20;;;12.30;99.90;;;;;;5039270;28;20037;-71
2023/05/14 04:54:19;;;;;;;15.10;10.50;;;12.30;99.90;;;;;;5027544;28;20443;-69
2023/05/14 04:56:46;;;;;;;18.40;10.30;;;12.30;99.90;;;;;;5032213;28;20099;-71
2023/05/14 04:59:12;;;;;;;19.45;10.93;;;12.30;99.90;;;;;;5025013;28;20052;-71
2023/05/14 05:01:38;;;;;;;16.47;10.20;;;12.40;99.90;;;;;;5034416;28;20032;-72
2023/05/14 05:04:03;;;;;;;14.90;9.73;;;12.40;99.90;;;;;;5028339;28;20037;-72
2023/05/14 05:06:30;;;;;;;17.17;10.10;;;12.30;99.90;;;;;;5031786;28;20104;-71
2023/05/14 05:08:55;;;;;;;;;;;12.30;99.90;;;;;;5025605;28;20311;-70
2023/05/14 05:11:21;;;;;;;16.05;10.65;;;12.30;99.90;;;;;;5029991;28;19955;-71
2023/05/14 05:13:47;;;;;;;17.37;13.23;;;12.40;99.90;;;;;;5033654;28;20037;-70
2023/05/14 05:16:12;;;;;;;16.70;12.83;;;12.40;99.90;;;;;;5033981;28;20052;-69
2023/05/14 05:18:38;;;;;;;17.07;12.20;;;12.50;99.90;;;;;;5035172;28;20505;-73
2023/05/14 05:21:03;;;;;;;18.13;13.43;;;12.50;99.90;;;;;;5031647;28;20028;-68
2023/05/14 05:23:29;;;;;;;19.20;14.07;;;12.50;99.90;;;;;;5034154;28;20036;-68
2023/05/14 05:25:55;;;;;;;19.90;14.10;;;12.40;99.90;;;;;;5025508;28;20567;-69
2023/05/14 05:28:20;;;;;;;22.77;13.60;;;12.50;99.90;;;;;;5030004;28;20029;-70
2023/05/14 05:30:46;;;;;;;22.03;14.03;;;12.50;99.90;;;;;;5030496;28;20063;-71
2023/05/14 05:33:12;;;;;;;19.50;13.70;;;12.50;99.90;;;;;;5029414;28;20465;-71
2023/05/14 05:35:38;;;;;;;22.90;15.02;;;12.50;99.90;;;;;;5027112;28;20055;-73
2023/05/14 05:38:03;;;;;;;25.73;15.77;;;12.50;99.90;;;;;;5028452;28;20086;-71
2023/05/14 05:40:29;;;;;;;20.43;15.83;;;12.50;99.90;;;;;;5020824;28;20069;-71
2023/05/14 05:42:54;;;;;;;23.98;15.80;;;12.50;99.90;;;;;;5029271;28;20567;-71
2023/05/14 05:45:20;;;;;;;21.57;15.67;;;12.50;99.90;;;;;;5028554;28;20056;-72
2023/05/14 05:47:46;;;;;;;20.63;14.15;;;12.50;99.90;;;;;;5025337;28;20474;-71
2023/05/14 05:50:12;;;;;;;29.13;15.93;;;12.50;99.90;;;;;;5032605;28;20041;-72
2023/05/14 05:52:38;;;;;;;26.52;16.88;;;12.50;99.90;;;;;;5034321;28;20520;-72
2023/05/14 05:55:04;;;;;;;22.60;16.23;;;12.50;99.90;;;;;;5026790;28;20136;-70
2023/05/14 05:57:30;;;;;;;20.38;15.38;;;12.60;99.90;;;;;;5030851;28;20036;-70
2023/05/14 05:59:55;;;;;;;21.40;15.13;;;12.60;99.90;;;;;;5029045;28;20033;-70
2023/05/14 06:02:21;;;;;;;22.77;15.97;;;12.60;99.90;;;;;;5032068;28;20549;-71
2023/05/14 06:04:47;;;;;;;23.83;15.93;;;12.60;99.90;;;;;;5026695;28;20456;-71
2023/05/14 06:07:13;;;;;;;24.77;16.90;;;12.60;99.90;;;;;;5027477;28;20401;-71
2023/05/14 06:09:38;;;;;;;25.20;17.23;;;12.60;99.90;;;;;;5028304;28;20464;-72
2023/05/14 06:12:04;;;;;;;27.80;17.83;;;12.60;99.90;;;;;;5028162;28;20032;-70
2023/05/14 06:14:30;;;;;;;30.40;18.55;;;12.70;99.90;;;;;;5024992;28;20084;-69
2023/05/14 06:16:56;;;;;;;27.40;18.63;;;12.70;99.90;;;;;;5025292;28;20032;-69
2023/05/14 06:19:22;;;;;;;26.38;17.58;;;12.80;99.90;;;;;;5026022;28;20481;-69
2023/05/14 06:21:47;;;;;;;24.75;16.85;;;12.90;99.90;;;;;;5028740;28;20094;-70
2023/05/14 06:24:13;;;;;;;22.93;16.40;;;13.00;99.90;;;;;;5028237;28;20363;-71
2023/05/14 06:26:38;;;;;;;24.13;18.23;;;13.10;99.90;;;;;;5020167;28;20730;-71
2023/05/14 06:29:04;;;;;;;25.87;18.30;;;13.00;99.90;;;;;;5027853;28;20500;-71
2023/05/14 06:31:30;;;;;;;23.52;16.75;;;13.10;99.90;;;;;;5026776;28;20038;-71
2023/05/14 06:33:55;;;;;;;22.73;16.87;;;13.10;99.90;;;;;;5032281;28;20052;-72
2023/05/14 06:36:21;;;;;;;20.97;16.17;;;13.10;99.90;;;;;;5026877;28;20140;-72
2023/05/14 06:38:46;;;;;;;21.07;15.57;;;13.20;99.90;;;;;;5027578;28;20064;-71
2023/05/14 06:41:12;;;;;;;24.10;15.43;;;13.20;99.90;;;;;;5057540;28;20033;-72
2023/05/14 06:43:37;;;;;;;17.43;13.63;;;13.10;99.90;;;;;;5027910;28;20029;-71
2023/05/14 06:46:03;;;;;;;21.73;15.33;;;13.10;99.90;;;;;;5029733;28;20021;-72
2023/05/14 06:48:29;;;;;;;19.20;14.30;;;13.10;99.90;;;;;;5031746;28;20541;-71
2023/05/14 06:50:55;;;;;;;28.00;16.65;;;13.10;99.90;;;;;;5027895;28;20030;-71
2023/05/14 06:53:20;;;;;;;20.63;14.33;;;13.20;99.90;;;;;;5041953;28;20392;-71
2023/05/14 06:55:47;;;;;;;23.10;15.60;;;13.10;99.90;;;;;;5032510;28;20045;-72
2023/05/14 06:58:13;;;;;;;24.48;15.05;;;13.10;99.90;;;;;;5032590;28;20396;-71
2023/05/14 07:00:39;;;;;;;22.20;15.80;;;13.10;99.90;;;;;;5027317;28;20030;-70
2023/05/14 07:03:04;;;;;;;24.70;15.68;;;13.10;99.90;;;;;;5039711;28;20035;-68
2023/05/14 07:05:30;;;;;;;24.73;15.90;;;13.10;99.90;;;;;;5064389;28;20080;-72
2023/05/14 07:07:56;;;;;;;27.47;16.63;;;13.10;99.90;;;;;;5029363;28;20025;-71
2023/05/14 07:10:23;;;;;;;26.55;16.17;;;13.10;99.90;;;;;;5030145;28;20801;-71
2023/05/14 07:12:49;;;;;;;22.65;16.58;;;13.10;99.90;;;;;;5028439;28;20033;-71
2023/05/14 07:15:15;;;;;;;23.67;17.13;;;13.20;99.90;;;;;;5029934;28;20044;-68
2023/05/14 07:17:40;;;;;;;20.93;15.77;;;13.20;99.90;;;;;;5028549;28;20096;-70
2023/05/14 07:20:07;;;;;;;26.20;15.43;;;13.20;99.90;;;;;;5033091;28;20304;-70
2023/05/14 07:22:32;;;;;;;20.77;15.00;;;13.20;99.90;;;;;;5032099;28;20489;-70
2023/05/14 07:24:58;;;;;;;15.48;12.68;;;13.30;99.90;;;;;;5028235;28;20118;-70
2023/05/14 07:27:25;;;;;;;16.88;14.30;;;13.30;99.90;;;;;;5030978;28;20025;-71
2023/05/14 07:29:51;;;;;;;17.80;13.25;;;13.40;99.90;;;;;;5031665;28;20033;-71
2023/05/14 07:32:16;;;;;;;18.73;12.27;;;13.30;99.90;;;;;;5030076;28;20036;-71
2023/05/14 07:34:43;;;;;;;17.13;12.40;;;13.30;99.90;;;;;;5034504;28;20030;-71
2023/05/14 07:37:09;;;;;;;17.05;11.85;;;13.30;99.90;;;;;;5030871;28;20034;-72
2023/05/14 07:39:35;;;;;;;23.33;11.77;;;13.30;99.90;;;;;;5031116;28;20030;-72
2023/05/14 07:42:01;;;;;;;16.90;12.00;;;13.30;99.90;;;;;;5030725;28;20095;-72
2023/05/14 07:44:26;;;;;;;17.17;11.90;;;13.40;99.90;;;;;;5029147;28;20516;-72
2023/05/14 07:46:52;;;;;;;16.03;12.03;;;13.40;99.90;;;;;;5033541;28;20024;-71
2023/05/14 07:49:17;;;;;;;17.43;12.40;;;13.40;99.90;;;;;;5042201;28;20155;-71
2023/05/14 07:51:43;;;;;;;17.30;12.17;;;13.40;99.90;;;;;;5031356;28;20403;-73
2023/05/14 07:54:10;;;;;;;20.07;15.13;;;13.40;99.90;;;;;;5049484;28;20032;-70
2023/05/14 07:56:35;;;;;;;22.63;13.40;;;13.40;99.90;;;;;;5029906;28;20110;-71
2023/05/14 07:59:01;;;;;;;19.30;13.80;;;13.30;99.90;;;;;;5032711;28;20549;-71
2023/05/14 08:01:26;;;;;;;17.47;13.23;;;13.40;99.90;;;;;;5032299;28;20444;-71
2023/05/14 08:03:52;;;;;;;18.13;12.47;;;13.40;99.90;;;;;;5034072;28;20049;-71
2023/05/14 08:06:19;;;;;;;16.10;11.70;;;13.40;99.90;;;;;;5027121;28;20029;-71
2023/05/14 08:08:45;;;;;;;18.65;13.40;;;13.40;99.90;;;;;;5033569;28;20032;-72
2023/05/14 08:11:11;;;;;;;15.07;12.17;;;13.50;99.90;;;;;;5028822;28;20029;-73
2023/05/14 08:13:36;;;;;;;16.67;12.50;;;13.50;99.90;;;;;;5029628;28;20021;-71
2023/05/14 08:16:02;;;;;;;19.03;13.33;;;13.60;99.90;;;;;;5032643;28;20332;-71
2023/05/14 08:18:28;;;;;;;19.42;11.57;;;13.70;99.90;;;;;;5027476;28;20401;-71
2023/05/14 08:20:53;;;;;;;16.03;11.10;;;13.70;99.90;;;;;;5035365;28;20028;-71
2023/05/14 08:23:19;;;;;;;17.33;12.13;;;13.80;99.90;;;;;;5031052;28;20029;-71
2023/05/14 08:25:45;;;;;;;19.07;12.93;;;13.90;99.90;;;;;;5027046;28;20028;-71
2023/05/14 08:28:10;;;;;;;21.90;11.67;;;13.80;99.90;;;;;;5031809;28;20039;-70
2023/05/14 08:30:36;;;;;;;14.60;11.67;;;13.80;99.90;;;;;;5031737;28;20025;-71
2023/05/14 08:33:02;;;;;;;25.70;11.27;;;13.70;99.90;;;;;;5030268;28;20028;-71
2023/05/14 08:35:27;;;;;;;18.07;11.97;;;13.60;99.90;;;;;;5032789;28;20033;-72
2023/05/14 08:37:53;;;;;;;19.27;12.30;;;13.60;99.90;;;;;;5031424;28;20021;-72
2023/05/14 08:40:23;;;;;;;22.53;12.90;;;13.70;99.90;;;;;;5028356;28;20052;-74
2023/05/14 08:42:50;;;;;;;14.60;12.07;;;13.80;99.90;;;;;;5028132;28;20365;-74
2023/05/14 08:45:18;;;;;;;18.90;12.63;;;14.00;99.90;;;;;;5030756;28;20598;-75
2023/05/14 08:47:49;;;;;;;15.32;11.55;;;14.30;99.90;;;;;;5047055;28;20022;-74
2023/05/14 08:50:15;;;;;;;16.10;11.10;;;14.50;99.90;;;;;;5041837;28;20033;-73
2023/05/14 08:52:41;;;;;;;14.82;10.48;;;14.60;99.90;;;;;;5031641;28;20044;-73
2023/05/14 08:55:07;;;;;;;16.27;11.27;;;14.80;99.90;;;;;;5038919;28;20049;-73
2023/05/14 08:57:33;;;;;;;10.40;9.25;;;14.90;99.90;;;;;;5032885;28;20029;-73
2023/05/14 09:00:00;;;;;;;11.55;8.65;;;15.00;99.90;;;;;;5029554;28;20087;-74
2023/05/14 09:02:30;;;;;;;10.35;7.85;;;14.90;99.90;;;;;;5023451;28;20033;-75
2023/05/14 09:05:00;;;;;;;9.95;7.72;;;14.70;99.90;;;;;;5035169;28;20029;-74
2023/05/14 09:07:27;;;;;;;11.95;7.68;;;14.50;99.90;;;;;;5026552;28;20572;-75
2023/05/14 09:09:53;;;;;;;;;;;14.30;99.90;;;;;;5033976;28;20071;-75
2023/05/14 09:12:19;;;;;;;10.80;8.02;;;14.40;99.90;;;;;;5033104;28;19913;-74
2023/05/14 09:14:46;;;;;;;10.20;6.40;;;14.30;99.90;;;;;;5027235;28;20094;-74
2023/05/14 09:17:12;;;;;;;7.82;7.03;;;14.20;99.90;;;;;;5040383;28;20076;-73
2023/05/14 09:19:41;;;;;;;11.10;6.90;;;14.10;99.90;;;;;;5025481;28;20037;-74
2023/05/14 09:22:15;;;;;;;7.32;6.00;;;14.20;99.90;;;;;;5030293;28;20045;-73
2023/05/14 09:24:42;;;;;;;8.70;6.97;;;14.30;99.90;;;;;;5030403;28;20044;-74
2023/05/14 09:27:09;;;;;;;7.82;6.20;;;14.60;99.90;;;;;;5028540;28;20090;-72
2023/05/14 09:29:36;;;;;;;9.98;6.07;;;15.00;99.90;;;;;;5028708;28;20029;-73
2023/05/14 09:32:04;;;;;;;7.43;6.63;;;15.20;99.90;;;;;;5035376;28;20021;-72
2023/05/14 09:34:31;;;;;;;8.00;6.47;;;15.30;99.90;;;;;;5030826;28;20112;-72
2023/05/14 09:37:01;;;;;;;8.50;5.53;;;15.20;99.90;;;;;;5027213;28;20840;-74
2023/05/14 09:39:28;;;;;;;7.15;6.10;;;15.10;99.90;;;;;;5023869;28;20405;-73
2023/05/14 09:41:55;;;;;;;7.07;6.03;;;15.00;99.90;;;;;;5027892;28;20117;-73
2023/05/14 09:44:21;;;;;;;8.70;7.22;;;14.70;99.90;;;;;;5024240;28;20057;-70
2023/05/14 09:46:48;;;;;;;9.63;7.30;;;14.60;99.90;;;;;;5028922;28;20033;-72
2023/05/14 09:49:14;;;;;;;12.32;7.68;;;14.60;99.90;;;;;;5031071;28;20401;-70
2023/05/14 09:51:40;;;;;;;10.40;7.85;;;14.50;99.90;;;;;;5030232;28;20091;-73
2023/05/14 09:54:07;;;;;;;8.73;7.82;;;14.60;99.90;;;;;;5023464;28;20386;-70
2023/05/14 09:56:34;;;;;;;11.43;7.93;;;14.60;99.90;;;;;;5029455;28;20528;-69
2023/05/14 09:59:01;;;;;;;10.38;7.75;;;14.70;99.90;;;;;;5033138;28;20053;-70
2023/05/14 10:01:28;;;;;;;11.05;8.90;;;14.80;99.90;;;;;;5018730;28;20034;-71
2023/05/14 10:03:54;;;;;;;10.45;8.15;;;14.90;99.90;;;;;;5018172;28;20496;-72
2023/05/14 10:06:24;;;;;;;11.85;9.52;;;14.90;99.90;;;;;;5026829;28;20222;-70
2023/05/14 10:08:53;;;;;;;11.18;9.98;;;15.00;99.90;;;;;;5026258;28;20033;-70
2023/05/14 10:11:21;;;;;;;10.90;9.10;;;15.10;99.90;;;;;;5028197;28;20029;-70
2023/05/14 10:14:04;;;;;;;11.98;9.77;;;15.30;99.90;;;;;;5026911;28;20029;-71
2023/05/14 10:16:36;;;;;;;11.52;9.80;;;15.30;99.90;;;;;;5028825;28;20029;-70
2023/05/14 10:19:09;;;;;;;14.02;11.48;;;15.30;99.90;;;;;;5026436;28;20034;-70
2023/05/14 10:21:37;;;;;;;14.95;12.13;;;15.40;99.90;;;;;;5051800;28;20029;-71
2023/05/14 10:24:04;;;;;;;12.55;10.52;;;16.20;99.90;;;;;;5026263;28;20053;-71
2023/05/14 10:26:40;;;;;;;14.15;10.77;;;16.80;99.90;;;;;;5031254;28;20037;-70
2023/05/14 10:29:08;;;;;;;14.90;11.52;;;16.90;99.90;;;;;;5028135;28;20040;-70
2023/05/14 10:31:54;;;;;;;12.63;10.15;;;18.00;99.90;;;;;;5030657;28;20024;-69
2023/05/14 10:34:45;;;;;;;12.80;8.80;;;18.50;99.90;;;;;;5028566;28;20032;-70
2023/05/14 10:37:20;;;;;;;10.10;8.68;;;18.10;99.90;;;;;;5027723;28;20045;-70
2023/05/14 10:39:46;;;;;;;10.35;8.40;;;18.00;99.90;;;;;;5035108;28;20040;-70
2023/05/14 10:42:22;;;;;;;;;;;18.30;99.90;;;;;;5026883;28;20048;-71
2023/05/14 10:44:57;;;;;;;9.80;7.20;;;18.30;99.90;;;;;;5028634;28;19964;-71
2023/05/14 10:47:24;;;;;;;7.75;6.82;;;18.50;99.90;;;;;;5028323;28;20384;-71
2023/05/14 10:49:54;;;;;;;14.35;8.50;;;18.80;99.90;;;;;;5028958;28;20508;-70
2023/05/14 10:52:20;;;;;;;10.88;7.03;;;18.60;99.90;;;;;;5026409;28;20033;-71
2023/05/14 10:54:50;;;;;;;;;;;18.30;99.90;;;;;;5028202;28;20025;-69
2023/05/14 10:57:20;;;;;;;11.20;7.00;;;17.80;99.90;;;;;;5034839;28;19913;-70
2023/05/14 10:59:54;;;;;;;8.55;7.22;;;17.40;99.90;;;;;;5028910;28;20051;-72
2023/05/14 11:02:23;;;;;;;10.65;6.93;;;17.20;99.90;;;;;;5022568;28;22423;-71
2023/05/14 11:05:14;;;;;;;10.57;7.32;;;17.20;99.90;;;;;;5023265;28;20047;-70
2023/05/14 11:07:44;;;;;;;12.32;7.88;;;17.50;99.90;;;;;;5022590;28;20037;-71
2023/05/14 11:10:12;;;;;;;7.82;7.03;;;17.60;99.90;;;;;;5028469;28;20319;-71
2023/05/14 11:12:40;;;;;;;8.20;6.32;;;17.80;99.90;;;;;;5022013;28;20067;-70
2023/05/14 11:15:10;;;;;;;7.78;6.88;;;17.80;99.90;;;;;;5024876;28;20075;-70
2023/05/14 11:17:38;;;;;;;8.23;7.30;;;17.60;99.90;;;;;;5028919;28;20024;-70
2023/05/14 11:20:05;;;;;;;9.27;6.93;;;17.30;99.90;;;;;;5027882;28;20140;-70
2023/05/14 11:22:31;;;;;;;10.10;6.72;;;17.30;99.90;;;;;;5028665;28;20026;-71
2023/05/14 11:24:56;;;;;;;7.97;6.80;;;17.40;99.90;;;;;;5025775;28;20054;-69
2023/05/14 11:27:22;;;;;;;12.83;7.30;;;17.50;99.90;;;;;;5031745;28;20041;-69
2023/05/14 11:29:49;;;;;;;6.30;5.53;;;17.70;99.90;;;;;;5045939;28;20117;-69
2023/05/14 11:32:15;;;;;;;8.55;5.70;;;17.60;99.90;;;;;;5029710;28;20033;-70
2023/05/14 11:34:45;;;;;;;6.18;5.47;;;17.70;99.90;;;;;;5030075;28;20480;-70
2023/05/14 11:37:12;;;;;;;7.13;5.53;;;17.80;99.90;;;;;;5031997;28;20045;-70
2023/05/14 11:39:44;;;;;;;7.13;5.75;;;17.80;99.90;;;;;;5033700;28;20017;-70
2023/05/14 11:42:12;;;;;;;8.55;6.22;;;17.80;99.90;;;;;;5033075;28;20026;-68
2023/05/14 11:44:38;;;;;;;7.45;5.90;;;17.80;99.90;;;;;;5030358;28;20610;-69
2023/05/14 11:47:05;;;;;;;6.97;5.53;;;17.80;99.90;;;;;;5031278;28;20029;-70
2023/05/14 11:49:31;;;;;;;5.50;4.93;;;18.00;99.90;;;;;;5034613;28;20091;-69
2023/05/14 11:52:09;;;;;;;7.22;4.28;;;18.50;99.90;;;;;;5031079;28;20025;-68
2023/05/14 11:54:34;;;;;;;6.13;4.47;;;18.90;99.90;;;;;;5028432;28;20017;-69
2023/05/14 11:57:15;;;;;;;5.13;4.53;;;19.10;99.90;;;;;;5027262;28;20480;-69
2023/05/14 11:59:41;;;;;;;6.43;4.35;;;19.20;99.90;;;;;;5028478;28;20276;-69
2023/05/14 12:02:11;;;;;;;4.90;4.38;;;19.00;99.90;;;;;;5027766;28;20033;-69
2023/05/14 12:04:37;;;;;;;5.15;4.45;;;19.00;97.40;;;;;;5033725;28;20062;-69
2023/05/14 12:07:10;;;;;;;6.13;4.90;;;19.00;99.90;;;;;;5028671;28;20029;-70
2023/05/14 12:09:38;;;;;;;8.18;4.90;;;19.30;99.90;;;;;;5028236;28;20034;-69
2023/05/14 12:12:09;;;;;;;6.22;5.28;;;19.30;99.90;;;;;;5035362;28;20056;-68
2023/05/14 12:14:40;;;;;;;7.95;5.10;;;19.10;99.90;;;;;;5030339;28;20116;-69
2023/05/14 12:17:15;;;;;;;5.45;4.38;;;19.30;99.90;;;;;;5028173;28;20033;-70
2023/05/14 12:19:42;;;;;;;6.65;5.03;;;19.20;99.70;;;;;;5040185;28;20034;-71
2023/05/14 12:22:09;;;;;;;4.93;4.43;;;19.10;99.50;;;;;;5056862;28;20697;-69
2023/05/14 12:24:35;;;;;;;6.15;4.85;;;18.90;98.10;;;;;;5041770;28;20033;-70
2023/05/14 12:27:01;;;;;;;7.82;4.82;;;18.60;99.10;;;;;;5026467;28;20040;-70
2023/05/14 12:29:27;;;;;;;;;;;18.60;99.60;;;;;;5027730;28;20029;-69
2023/05/14 12:31:56;;;;;;;7.22;4.70;;;18.50;99.90;;;;;;5032300;28;19919;-70
2023/05/14 12:34:21;;;;;;;5.25;4.75;;;18.40;99.80;;;;;;5028878;28;20061;-69
2023/05/14 12:36:47;;;;;;;5.07;4.50;;;18.40;99.90;;;;;;5023488;28;20069;-71
2023/05/14 12:39:13;;;;;;;5.17;4.23;;;18.60;99.90;;;;;;5029383;28;20024;-70